This is the latest recevied weather packets stored in our database for station/object KB1YTR-1. If no packets are shown the sender has not sent any weather packets the latest 10 day(s).
| Time | Temp. | Humidity | Pressure | Rain* | Wind** | Luminosity | Snow |
|---|---|---|---|---|---|---|---|
| 1787858671 | 23.33° C | 55% | 1017.7 hPa | 0 mm | - | - | - |
| 1787857896 | 22.78° C | 60% | 1017.6 hPa | 0 mm | - | - | - |
| 1787857120 | 23.33° C | 61% | 1017.7 hPa | 0 mm | - | - | - |
| 1787856345 | 22.78° C | 61% | 1017.6 hPa | 0 mm | - | - | - |
| 1787855620 | 22.78° C | 61% | 1017.7 hPa | 0 mm | - | - | - |
| 1787854855 | 23.33° C | 60% | 1017.7 hPa | 0 mm | - | - | - |
| 1787853975 | 22.78° C | 59% | 1017.6 hPa | 0 mm | - | - | - |
| 1787853135 | 22.78° C | 64% | 1017.6 hPa | 0 mm | - | - | - |
| 1787852385 | 22.22° C | 66% | 1017.7 hPa | 0 mm | - | - | - |
| 1787851485 | 21.11° C | 69% | 1017.6 hPa | 0 mm | - | - | - |
| 1787850645 | 21.11° C | 69% | 1017.7 hPa | 0 mm | - | - | - |
| 1787849876 | 22.78° C | 66% | 1017.8 hPa | 0 mm | - | - | - |
| 1787849000 | 22.22° C | 69% | 1017.7 hPa | 0 mm | - | - | - |
| 1787848225 | 22.22° C | 68% | 1018 hPa | 0 mm | - | - | - |
| 1787847330 | 22.22° C | 67% | 1017.7 hPa | 0 mm | - | - | - |
| 1787846556 | 21.67° C | 67% | 1017.8 hPa | 0 mm | - | - | - |
| 1787845808 | 21.67° C | 69% | 1017.8 hPa | 0 mm | - | - | - |
| 1787845075 | 21.11° C | 70% | 1017.7 hPa | 0 mm | - | - | - |
| 1787844193 | 21.11° C | 72% | 1017.5 hPa | 0 mm | - | - | - |
| 1787843387 | 20.56° C | 74% | 1017.5 hPa | 0 mm | - | - | - |
| 1787842560 | 20.56° C | 75% | 1017.2 hPa | 0 mm | - | - | - |
| 1787841720 | 19.44° C | 79% | 1017.1 hPa | 0 mm | - | - | - |
| 1787840845 | 18.33° C | 84% | 1017.2 hPa | 0 mm | - | - | - |
| 1787840055 | 17.78° C | 84% | 1017 hPa | 0 mm | - | - | - |
| 1787839255 | 17.22° C | 87% | 1017.1 hPa | 0 mm | - | - | - |
* Rain latest hour (hover to see other rain measurements)
** Current wind speed in m/s (hover to see current wind gust speed)